Terminal Aerodrome Forecast
Issued by NWS

Home | Current Version | Previous Version | Text Only | Print | Product List | Glossary On
Versions: 1 2 3 4 5 6 7 8 9 10 11 12 13 14 15 16 17 18 19 20 21 22 23 24 25 26 27 28 29 30 31 32 33 34 35 36 37 38 39 40 41 42 43 44 45 46 47 48 49 50
000
FTAK31 PANC 220105 AAB
TAFASD
TAF AMD
PASD 220105Z 2201/2224 20012KT 6SM -RA BR SCT015 OVC025
      TEMPO 2201/2205 3SM -RA BR BKN012
     FM221800 VRB05KT 4SM -RA BR SCT004 OVC007
     FM222200 33008KT 5SM -SHRA BR SCT007 OVC015
      AMD LTD TO CLD VIS AND WIND=

USA.gov is the U.S. government's official web portal to all federal, state and local government web resources and services.